sensor_id;sensor_type;location;lat;lon;timestamp;pressure;altitude;pressure_sealevel;temperature;humidity
10978;BME280;5542;48.272;10.794;2023-08-06T00:00:30;95085.13;;;16.42;82.59
10978;BME280;5542;48.272;10.794;2023-08-06T00:02:57;95078.25;;;16.41;82.69
10978;BME280;5542;48.272;10.794;2023-08-06T00:05:23;95080.28;;;16.49;82.36
10978;BME280;5542;48.272;10.794;2023-08-06T00:07:50;95076.31;;;16.47;82.65
10978;BME280;5542;48.272;10.794;2023-08-06T00:10:18;95069.53;;;16.35;83.09
10978;BME280;5542;48.272;10.794;2023-08-06T00:12:45;95069.53;;;16.35;83.27
10978;BME280;5542;48.272;10.794;2023-08-06T00:15:11;95060.25;;;16.38;82.89
10978;BME280;5542;48.272;10.794;2023-08-06T00:17:38;95053.84;;;16.39;83.45
10978;BME280;5542;48.272;10.794;2023-08-06T00:20:06;95048.66;;;16.29;83.68
10978;BME280;5542;48.272;10.794;2023-08-06T00:22:33;95055.09;;;16.18;84.66
10978;BME280;5542;48.272;10.794;2023-08-06T00:24:59;95051.66;;;16.17;84.71
10978;BME280;5542;48.272;10.794;2023-08-06T00:27:28;95053.53;;;16.17;84.68
10978;BME280;5542;48.272;10.794;2023-08-06T00:29:54;95047.78;;;16.09;85.35
10978;BME280;5542;48.272;10.794;2023-08-06T00:32:21;95048.88;;;16.03;85.83
10978;BME280;5542;48.272;10.794;2023-08-06T00:34:48;95036.97;;;16.01;86.05
10978;BME280;5542;48.272;10.794;2023-08-06T00:37:15;95038.63;;;15.92;86.95
10978;BME280;5542;48.272;10.794;2023-08-06T00:39:42;95036.25;;;15.90;86.60
10978;BME280;5542;48.272;10.794;2023-08-06T00:42:09;95044.81;;;15.82;86.69
10978;BME280;5542;48.272;10.794;2023-08-06T00:44:37;95042.31;;;15.96;85.86
10978;BME280;5542;48.272;10.794;2023-08-06T00:47:06;95036.28;;;15.85;86.44
10978;BME280;5542;48.272;10.794;2023-08-06T00:49:34;95042.66;;;15.84;86.78
10978;BME280;5542;48.272;10.794;2023-08-06T00:52:02;95042.22;;;15.77;86.71
10978;BME280;5542;48.272;10.794;2023-08-06T00:54:30;95036.16;;;15.66;86.67
10978;BME280;5542;48.272;10.794;2023-08-06T00:56:58;95029.53;;;15.69;87.21
10978;BME280;5542;48.272;10.794;2023-08-06T00:59:25;95031.41;;;15.63;87.86
10978;BME280;5542;48.272;10.794;2023-08-06T01:01:54;95025.31;;;15.68;88.19
10978;BME280;5542;48.272;10.794;2023-08-06T01:04:20;95017.31;;;15.73;87.49
10978;BME280;5542;48.272;10.794;2023-08-06T01:06:48;95015.38;;;15.83;86.25
10978;BME280;5542;48.272;10.794;2023-08-06T01:09:28;95023.59;;;15.82;86.19
10978;BME280;5542;48.272;10.794;2023-08-06T01:12:06;95025.72;;;15.80;86.37
10978;BME280;5542;48.272;10.794;2023-08-06T01:14:37;95033.69;;;15.80;86.27
10978;BME280;5542;48.272;10.794;2023-08-06T01:17:09;95028.63;;;15.83;85.62
10978;BME280;5542;48.272;10.794;2023-08-06T01:19:36;95027.34;;;15.81;85.39
10978;BME280;5542;48.272;10.794;2023-08-06T01:22:04;95030.78;;;15.81;85.03
10978;BME280;5542;48.272;10.794;2023-08-06T01:24:31;95035.91;;;15.68;85.07
10978;BME280;5542;48.272;10.794;2023-08-06T01:27:03;95031.69;;;15.67;85.20
10978;BME280;5542;48.272;10.794;2023-08-06T01:29:35;95026.09;;;15.63;84.16
10978;BME280;5542;48.272;10.794;2023-08-06T01:32:05;95029.06;;;15.56;83.94
10978;BME280;5542;48.272;10.794;2023-08-06T01:34:35;95031.72;;;15.56;83.29
10978;BME280;5542;48.272;10.794;2023-08-06T01:37:04;95021.34;;;15.60;82.78
10978;BME280;5542;48.272;10.794;2023-08-06T01:39:33;95012.16;;;15.47;83.10
10978;BME280;5542;48.272;10.794;2023-08-06T01:42:00;95017.78;;;15.41;82.79
10978;BME280;5542;48.272;10.794;2023-08-06T01:44:26;95011.69;;;15.40;83.49
10978;BME280;5542;48.272;10.794;2023-08-06T01:46:53;95001.09;;;15.40;83.71
10978;BME280;5542;48.272;10.794;2023-08-06T01:49:19;94995.63;;;15.26;83.92
10978;BME280;5542;48.272;10.794;2023-08-06T01:51:46;94991.91;;;15.27;84.21
10978;BME280;5542;48.272;10.794;2023-08-06T01:54:14;94983.69;;;15.29;83.75
10978;BME280;5542;48.272;10.794;2023-08-06T01:56:40;94986.38;;;15.19;84.03
10978;BME280;5542;48.272;10.794;2023-08-06T01:59:07;94980.03;;;15.20;84.36
10978;BME280;5542;48.272;10.794;2023-08-06T02:01:33;94984.81;;;15.18;83.75
10978;BME280;5542;48.272;10.794;2023-08-06T02:04:00;94981.34;;;15.22;83.82
10978;BME280;5542;48.272;10.794;2023-08-06T02:06:26;94970.53;;;15.14;84.70
10978;BME280;5542;48.272;10.794;2023-08-06T02:08:53;94956.78;;;15.11;85.00
10978;BME280;5542;48.272;10.794;2023-08-06T02:11:21;94952.78;;;15.14;84.80
10978;BME280;5542;48.272;10.794;2023-08-06T02:13:47;94960.50;;;15.10;85.33
10978;BME280;5542;48.272;10.794;2023-08-06T02:16:14;94965.22;;;15.14;85.40
10978;BME280;5542;48.272;10.794;2023-08-06T02:18:40;94962.31;;;15.15;85.31
10978;BME280;5542;48.272;10.794;2023-08-06T02:21:07;94968.66;;;15.19;84.53
10978;BME280;5542;48.272;10.794;2023-08-06T02:23:34;94972.63;;;15.17;84.67
10978;BME280;5542;48.272;10.794;2023-08-06T02:26:01;94969.75;;;15.13;85.00
10978;BME280;5542;48.272;10.794;2023-08-06T02:28:29;94981.06;;;15.24;84.14
10978;BME280;5542;48.272;10.794;2023-08-06T02:30:56;94973.69;;;15.21;83.88
10978;BME280;5542;48.272;10.794;2023-08-06T02:33:23;94970.31;;;15.10;84.47
10978;BME280;5542;48.272;10.794;2023-08-06T02:35:49;94974.59;;;15.01;85.23
10978;BME280;5542;48.272;10.794;2023-08-06T02:38:16;94969.53;;;15.04;85.15
10978;BME280;5542;48.272;10.794;2023-08-06T02:40:43;94970.59;;;15.03;85.86
10978;BME280;5542;48.272;10.794;2023-08-06T02:43:10;94974.22;;;15.18;84.64
10978;BME280;5542;48.272;10.794;2023-08-06T02:45:38;94969.03;;;15.02;85.08
10978;BME280;5542;48.272;10.794;2023-08-06T02:48:05;94966.38;;;15.02;85.44
10978;BME280;5542;48.272;10.794;2023-08-06T02:50:37;94962.44;;;14.95;85.58
10978;BME280;5542;48.272;10.794;2023-08-06T02:53:04;94969.56;;;14.99;85.88
10978;BME280;5542;48.272;10.794;2023-08-06T02:55:30;94963.69;;;15.07;85.23
10978;BME280;5542;48.272;10.794;2023-08-06T02:57:57;94965.31;;;15.03;84.86
10978;BME280;5542;48.272;10.794;2023-08-06T03:00:23;94965.84;;;15.05;84.17
10978;BME280;5542;48.272;10.794;2023-08-06T03:02:52;94957.38;;;14.98;84.60
10978;BME280;5542;48.272;10.794;2023-08-06T03:05:19;94955.34;;;14.85;85.21
10978;BME280;5542;48.272;10.794;2023-08-06T03:07:45;94955.56;;;14.94;85.11
10978;BME280;5542;48.272;10.794;2023-08-06T03:10:12;94942.56;;;14.97;84.47
10978;BME280;5542;48.272;10.794;2023-08-06T03:12:38;94951.91;;;14.84;85.13
10978;BME280;5542;48.272;10.794;2023-08-06T03:15:06;94945.63;;;14.70;86.21
10978;BME280;5542;48.272;10.794;2023-08-06T03:17:33;94939.81;;;14.73;86.07
10978;BME280;5542;48.272;10.794;2023-08-06T03:20:00;94944.88;;;14.65;86.42
10978;BME280;5542;48.272;10.794;2023-08-06T03:22:27;94947.47;;;14.75;86.23
10978;BME280;5542;48.272;10.794;2023-08-06T03:24:54;94954.31;;;14.76;85.39
10978;BME280;5542;48.272;10.794;2023-08-06T03:27:20;94951.13;;;14.84;84.81
10978;BME280;5542;48.272;10.794;2023-08-06T03:29:48;94945.88;;;14.74;85.82
10978;BME280;5542;48.272;10.794;2023-08-06T03:32:15;94950.34;;;14.78;85.26
10978;BME280;5542;48.272;10.794;2023-08-06T03:34:41;94955.91;;;14.82;85.39
10978;BME280;5542;48.272;10.794;2023-08-06T03:37:09;94951.13;;;14.84;85.53
10978;BME280;5542;48.272;10.794;2023-08-06T03:39:36;94948.78;;;14.77;85.85
10978;BME280;5542;48.272;10.794;2023-08-06T03:42:03;94956.47;;;14.74;84.98
10978;BME280;5542;48.272;10.794;2023-08-06T03:44:30;94948.84;;;14.67;85.90
10978;BME280;5542;48.272;10.794;2023-08-06T03:46:56;94931.94;;;14.58;85.98
10978;BME280;5542;48.272;10.794;2023-08-06T03:49:23;94939.56;;;14.65;85.45
10978;BME280;5542;48.272;10.794;2023-08-06T03:51:49;94931.13;;;14.63;85.83
10978;BME280;5542;48.272;10.794;2023-08-06T03:54:17;94932.22;;;14.51;85.72
10978;BME280;5542;48.272;10.794;2023-08-06T03:56:44;94931.34;;;14.66;85.19
10978;BME280;5542;48.272;10.794;2023-08-06T03:59:10;94930.31;;;14.62;85.30
10978;BME280;5542;48.272;10.794;2023-08-06T04:01:37;94927.94;;;14.60;85.20
10978;BME280;5542;48.272;10.794;2023-08-06T04:04:03;94940.72;;;14.48;85.94
10978;BME280;5542;48.272;10.794;2023-08-06T04:06:30;94946.22;;;14.47;86.70
10978;BME280;5542;48.272;10.794;2023-08-06T04:08:56;94949.66;;;14.47;86.98
10978;BME280;5542;48.272;10.794;2023-08-06T04:11:24;94946.53;;;14.50;87.26
10978;BME280;5542;48.272;10.794;2023-08-06T04:13:51;94937.50;;;14.51;87.19
10978;BME280;5542;48.272;10.794;2023-08-06T04:16:19;94946.50;;;14.55;86.61
10978;BME280;5542;48.272;10.794;2023-08-06T04:18:46;94941.50;;;14.54;86.60
10978;BME280;5542;48.272;10.794;2023-08-06T04:21:12;94937.00;;;14.49;86.57
10978;BME280;5542;48.272;10.794;2023-08-06T04:23:39;94934.06;;;14.46;86.55
10978;BME280;5542;48.272;10.794;2023-08-06T04:26:05;94934.09;;;14.41;86.72
10978;BME280;5542;48.272;10.794;2023-08-06T04:28:33;94934.38;;;14.39;86.94
10978;BME280;5542;48.272;10.794;2023-08-06T04:31:00;94930.66;;;14.40;86.92
10978;BME280;5542;48.272;10.794;2023-08-06T04:33:26;94928.03;;;14.35;87.05
10978;BME280;5542;48.272;10.794;2023-08-06T04:35:56;94929.38;;;14.32;87.60
10978;BME280;5542;48.272;10.794;2023-08-06T04:38:23;94928.81;;;14.41;87.25
10978;BME280;5542;48.272;10.794;2023-08-06T04:40:50;94922.44;;;14.42;86.98
10978;BME280;5542;48.272;10.794;2023-08-06T04:43:17;94928.50;;;14.47;86.21
10978;BME280;5542;48.272;10.794;2023-08-06T04:45:47;94929.31;;;14.43;86.63
10978;BME280;5542;48.272;10.794;2023-08-06T04:48:13;94931.19;;;14.42;86.67
10978;BME280;5542;48.272;10.794;2023-08-06T04:50:43;94925.34;;;14.45;85.93
10978;BME280;5542;48.272;10.794;2023-08-06T04:53:10;94919.00;;;14.46;85.65
10978;BME280;5542;48.272;10.794;2023-08-06T04:55:37;94910.78;;;14.58;84.92
10978;BME280;5542;48.272;10.794;2023-08-06T04:58:03;94921.13;;;14.49;86.23
10978;BME280;5542;48.272;10.794;2023-08-06T05:00:30;94919.56;;;14.43;86.80
10978;BME280;5542;48.272;10.794;2023-08-06T05:02:59;94920.06;;;14.50;86.81
10978;BME280;5542;48.272;10.794;2023-08-06T05:05:26;94924.47;;;14.70;85.33
10978;BME280;5542;48.272;10.794;2023-08-06T05:07:54;94923.97;;;14.63;86.18
10978;BME280;5542;48.272;10.794;2023-08-06T05:10:21;94925.03;;;14.67;86.44
10978;BME280;5542;48.272;10.794;2023-08-06T05:12:48;94917.34;;;14.66;86.23
10978;BME280;5542;48.272;10.794;2023-08-06T05:15:14;94919.63;;;14.82;85.55
10978;BME280;5542;48.272;10.794;2023-08-06T05:17:41;94910.91;;;14.82;84.15
10978;BME280;5542;48.272;10.794;2023-08-06T05:20:11;94917.22;;;14.91;84.51
10978;BME280;5542;48.272;10.794;2023-08-06T05:22:37;94914.00;;;14.94;84.06
10978;BME280;5542;48.272;10.794;2023-08-06T05:25:05;94918.25;;;14.90;84.86
10978;BME280;5542;48.272;10.794;2023-08-06T05:27:31;94920.91;;;14.90;84.74
10978;BME280;5542;48.272;10.794;2023-08-06T05:29:58;94916.91;;;14.93;84.51
10978;BME280;5542;48.272;10.794;2023-08-06T05:32:24;94918.03;;;14.87;85.01
10978;BME280;5542;48.272;10.794;2023-08-06T05:34:51;94915.06;;;14.93;84.52
10978;BME280;5542;48.272;10.794;2023-08-06T05:37:19;94917.13;;;15.01;83.71
10978;BME280;5542;48.272;10.794;2023-08-06T05:39:45;94910.69;;;15.13;83.27
10978;BME280;5542;48.272;10.794;2023-08-06T05:42:12;94909.53;;;15.24;82.75
10978;BME280;5542;48.272;10.794;2023-08-06T05:44:38;94917.75;;;15.22;82.49
10978;BME280;5542;48.272;10.794;2023-08-06T05:47:05;94909.44;;;15.39;82.73
10978;BME280;5542;48.272;10.794;2023-08-06T05:49:32;94903.00;;;15.45;80.61
10978;BME280;5542;48.272;10.794;2023-08-06T05:51:58;94913.56;;;15.50;80.51
10978;BME280;5542;48.272;10.794;2023-08-06T05:54:26;94913.53;;;15.55;80.32
10978;BME280;5542;48.272;10.794;2023-08-06T05:56:53;94906.66;;;15.54;80.34
10978;BME280;5542;48.272;10.794;2023-08-06T05:59:19;94915.88;;;15.57;80.45
10978;BME280;5542;48.272;10.794;2023-08-06T06:01:46;94913.44;;;15.66;82.04
10978;BME280;5542;48.272;10.794;2023-08-06T06:04:12;94913.09;;;15.77;80.20
10978;BME280;5542;48.272;10.794;2023-08-06T06:06:39;94903.66;;;15.90;79.39
10978;BME280;5542;48.272;10.794;2023-08-06T06:09:07;94917.56;;;16.06;79.37
10978;BME280;5542;48.272;10.794;2023-08-06T06:11:34;94910.00;;;15.94;78.32
10978;BME280;5542;48.272;10.794;2023-08-06T06:14:01;94920.94;;;15.87;78.73
10978;BME280;5542;48.272;10.794;2023-08-06T06:16:28;94924.19;;;15.79;79.63
10978;BME280;5542;48.272;10.794;2023-08-06T06:18:54;94934.00;;;15.79;79.89
10978;BME280;5542;48.272;10.794;2023-08-06T06:21:23;94929.88;;;15.68;79.80
10978;BME280;5542;48.272;10.794;2023-08-06T06:23:50;94928.63;;;15.55;80.64
10978;BME280;5542;48.272;10.794;2023-08-06T06:26:17;94931.91;;;15.42;80.35
10978;BME280;5542;48.272;10.794;2023-08-06T06:28:45;94933.00;;;15.41;81.71
10978;BME280;5542;48.272;10.794;2023-08-06T06:31:12;94926.19;;;15.29;82.34
10978;BME280;5542;48.272;10.794;2023-08-06T06:33:38;94928.47;;;15.07;83.12
10978;BME280;5542;48.272;10.794;2023-08-06T06:36:05;94918.91;;;15.11;84.67
10978;BME280;5542;48.272;10.794;2023-08-06T06:38:33;94912.38;;;14.98;84.88
10978;BME280;5542;48.272;10.794;2023-08-06T06:40:59;94915.03;;;14.98;84.11
10978;BME280;5542;48.272;10.794;2023-08-06T06:43:27;94911.31;;;14.99;85.29
10978;BME280;5542;48.272;10.794;2023-08-06T06:45:56;94905.97;;;15.04;85.82
10978;BME280;5542;48.272;10.794;2023-08-06T06:48:23;94913.41;;;15.02;85.07
10978;BME280;5542;48.272;10.794;2023-08-06T06:50:49;94913.19;;;14.94;85.91
10978;BME280;5542;48.272;10.794;2023-08-06T06:53:16;94903.16;;;14.96;86.23
10978;BME280;5542;48.272;10.794;2023-08-06T06:55:43;94906.00;;;14.99;86.96
10978;BME280;5542;48.272;10.794;2023-08-06T06:58:09;94902.31;;;15.00;87.67
10978;BME280;5542;48.272;10.794;2023-08-06T07:00:36;94895.84;;;15.17;86.30
10978;BME280;5542;48.272;10.794;2023-08-06T07:03:04;94897.56;;;15.31;85.44
10978;BME280;5542;48.272;10.794;2023-08-06T07:05:31;94895.66;;;15.37;87.00
10978;BME280;5542;48.272;10.794;2023-08-06T07:07:57;94894.91;;;15.60;84.67
10978;BME280;5542;48.272;10.794;2023-08-06T07:10:25;94890.41;;;15.90;83.21
10978;BME280;5542;48.272;10.794;2023-08-06T07:12:51;94890.03;;;16.02;82.10
10978;BME280;5542;48.272;10.794;2023-08-06T07:15:18;94889.91;;;16.12;80.55
10978;BME280;5542;48.272;10.794;2023-08-06T07:17:44;94891.25;;;16.33;80.32
10978;BME280;5542;48.272;10.794;2023-08-06T07:20:12;94901.69;;;16.49;79.17
10978;BME280;5542;48.272;10.794;2023-08-06T07:22:39;94894.28;;;16.46;77.21
10978;BME280;5542;48.272;10.794;2023-08-06T07:25:06;94883.19;;;16.62;78.42
10978;BME280;5542;48.272;10.794;2023-08-06T07:27:33;94881.75;;;16.70;75.69
10978;BME280;5542;48.272;10.794;2023-08-06T07:29:59;94885.78;;;17.05;76.21
10978;BME280;5542;48.272;10.794;2023-08-06T07:32:26;94882.06;;;17.39;72.95
10978;BME280;5542;48.272;10.794;2023-08-06T07:34:53;94893.88;;;17.79;73.71
10978;BME280;5542;48.272;10.794;2023-08-06T07:37:26;94896.66;;;17.88;72.30
10978;BME280;5542;48.272;10.794;2023-08-06T07:39:53;94899.09;;;17.84;69.50
10978;BME280;5542;48.272;10.794;2023-08-06T07:42:20;94909.22;;;17.69;70.44
10978;BME280;5542;48.272;10.794;2023-08-06T07:44:51;94910.59;;;17.66;69.94
10978;BME280;5542;48.272;10.794;2023-08-06T07:47:17;94916.69;;;17.66;69.65
10978;BME280;5542;48.272;10.794;2023-08-06T07:49:44;94909.28;;;17.63;68.50
10978;BME280;5542;48.272;10.794;2023-08-06T07:52:10;94916.06;;;17.56;68.90
10978;BME280;5542;48.272;10.794;2023-08-06T07:54:38;94908.16;;;17.51;70.29
10978;BME280;5542;48.272;10.794;2023-08-06T07:57:05;94918.53;;;17.52;70.24
10978;BME280;5542;48.272;10.794;2023-08-06T07:59:32;94925.22;;;17.50;67.91
10978;BME280;5542;48.272;10.794;2023-08-06T08:01:59;94921.50;;;17.32;69.89
10978;BME280;5542;48.272;10.794;2023-08-06T08:04:25;94924.97;;;17.13;68.81
10978;BME280;5542;48.272;10.794;2023-08-06T08:06:52;94926.56;;;17.14;67.54
10978;BME280;5542;48.272;10.794;2023-08-06T08:09:18;94926.72;;;17.04;69.33
10978;BME280;5542;48.272;10.794;2023-08-06T08:11:46;94927.78;;;17.03;68.95
10978;BME280;5542;48.272;10.794;2023-08-06T08:14:13;94929.00;;;16.92;67.70
10978;BME280;5542;48.272;10.794;2023-08-06T08:16:40;94931.72;;;16.87;67.80
10978;BME280;5542;48.272;10.794;2023-08-06T08:19:06;94934.72;;;16.80;69.08
10978;BME280;5542;48.272;10.794;2023-08-06T08:21:33;94937.19;;;16.77;69.54
10978;BME280;5542;48.272;10.794;2023-08-06T08:24:00;94931.53;;;16.59;70.40
10978;BME280;5542;48.272;10.794;2023-08-06T08:26:27;94939.50;;;16.59;71.15
10978;BME280;5542;48.272;10.794;2023-08-06T08:28:56;94939.00;;;16.57;70.76
10978;BME280;5542;48.272;10.794;2023-08-06T08:31:23;94940.53;;;16.39;71.28
10978;BME280;5542;48.272;10.794;2023-08-06T08:33:49;94936.00;;;16.40;72.06
10978;BME280;5542;48.272;10.794;2023-08-06T08:36:16;94949.63;;;16.33;71.44
10978;BME280;5542;48.272;10.794;2023-08-06T08:38:42;94936.31;;;16.38;71.58
10978;BME280;5542;48.272;10.794;2023-08-06T08:41:10;94935.78;;;16.36;72.14
10978;BME280;5542;48.272;10.794;2023-08-06T08:43:36;94949.72;;;16.23;73.32
10978;BME280;5542;48.272;10.794;2023-08-06T08:46:05;94940.00;;;16.13;73.70
10978;BME280;5542;48.272;10.794;2023-08-06T08:48:34;94950.75;;;16.03;73.98
10978;BME280;5542;48.272;10.794;2023-08-06T08:51:00;94950.00;;;15.98;74.66
10978;BME280;5542;48.272;10.794;2023-08-06T08:53:28;94967.53;;;15.94;74.09
10978;BME280;5542;48.272;10.794;2023-08-06T08:55:55;94952.81;;;15.82;74.11
10978;BME280;5542;48.272;10.794;2023-08-06T08:58:21;94962.19;;;15.70;74.51
10978;BME280;5542;48.272;10.794;2023-08-06T09:00:48;94956.00;;;15.45;72.71
10978;BME280;5542;48.272;10.794;2023-08-06T09:03:17;94958.41;;;15.42;73.34
10978;BME280;5542;48.272;10.794;2023-08-06T09:05:44;94954.69;;;15.43;73.51
10978;BME280;5542;48.272;10.794;2023-08-06T09:08:13;94961.34;;;15.40;74.12
10978;BME280;5542;48.272;10.794;2023-08-06T09:10:43;94966.59;;;15.45;72.77
10978;BME280;5542;48.272;10.794;2023-08-06T09:13:09;94964.50;;;15.42;72.50
10978;BME280;5542;48.272;10.794;2023-08-06T09:15:37;94972.06;;;15.25;73.99
10978;BME280;5542;48.272;10.794;2023-08-06T09:18:09;94973.56;;;15.36;74.42
10978;BME280;5542;48.272;10.794;2023-08-06T09:20:38;94987.38;;;15.28;73.20
10978;BME280;5542;48.272;10.794;2023-08-06T09:23:07;94960.16;;;15.22;73.50
10978;BME280;5542;48.272;10.794;2023-08-06T09:25:37;94967.22;;;15.32;72.81
10978;BME280;5542;48.272;10.794;2023-08-06T09:28:08;94965.81;;;15.45;73.67
10978;BME280;5542;48.272;10.794;2023-08-06T09:30:36;94969.22;;;15.50;71.90
10978;BME280;5542;48.272;10.794;2023-08-06T09:33:08;94970.78;;;15.51;71.99
10978;BME280;5542;48.272;10.794;2023-08-06T09:35:35;94972.84;;;15.59;71.74
10978;BME280;5542;48.272;10.794;2023-08-06T09:38:10;94982.44;;;15.55;72.17
10978;BME280;5542;48.272;10.794;2023-08-06T09:40:37;94976.28;;;15.60;73.20
10978;BME280;5542;48.272;10.794;2023-08-06T09:43:04;94987.25;;;15.48;73.21
10978;BME280;5542;48.272;10.794;2023-08-06T09:45:32;94984.56;;;15.53;73.59
10978;BME280;5542;48.272;10.794;2023-08-06T09:48:00;94990.66;;;15.54;74.28
10978;BME280;5542;48.272;10.794;2023-08-06T09:50:29;94986.41;;;15.58;73.91
10978;BME280;5542;48.272;10.794;2023-08-06T09:52:57;94986.41;;;15.58;74.53
10978;BME280;5542;48.272;10.794;2023-08-06T09:55:26;94989.81;;;15.64;74.24
10978;BME280;5542;48.272;10.794;2023-08-06T09:57:53;94984.75;;;15.67;74.69
10978;BME280;5542;48.272;10.794;2023-08-06T10:00:21;94985.03;;;15.60;74.78
10978;BME280;5542;48.272;10.794;2023-08-06T10:02:48;94984.78;;;15.57;73.89
10978;BME280;5542;48.272;10.794;2023-08-06T10:05:16;94980.25;;;15.68;76.33
10978;BME280;5542;48.272;10.794;2023-08-06T10:07:44;94981.81;;;15.69;76.55
10978;BME280;5542;48.272;10.794;2023-08-06T10:10:11;94974.72;;;15.93;75.72
10978;BME280;5542;48.272;10.794;2023-08-06T10:12:41;94969.94;;;15.90;74.14
10978;BME280;5542;48.272;10.794;2023-08-06T10:15:11;94970.47;;;15.92;73.30
10978;BME280;5542;48.272;10.794;2023-08-06T10:17:39;94974.72;;;15.93;72.13
10978;BME280;5542;48.272;10.794;2023-08-06T10:20:08;94986.28;;;16.02;73.19
10978;BME280;5542;48.272;10.794;2023-08-06T10:22:36;94985.25;;;15.98;72.54
10978;BME280;5542;48.272;10.794;2023-08-06T10:25:03;94971.63;;;16.10;74.51
10978;BME280;5542;48.272;10.794;2023-08-06T10:27:32;94975.31;;;16.38;73.80
10978;BME280;5542;48.272;10.794;2023-08-06T10:30:22;94978.88;;;16.76;70.60
10978;BME280;5542;48.272;10.794;2023-08-06T10:32:50;94982.91;;;16.69;70.46
10978;BME280;5542;48.272;10.794;2023-08-06T10:35:31;94978.28;;;16.55;70.55
10978;BME280;5542;48.272;10.794;2023-08-06T10:37:59;94984.91;;;16.34;71.58
10978;BME280;5542;48.272;10.794;2023-08-06T10:40:26;94978.97;;;16.18;71.59
10978;BME280;5542;48.272;10.794;2023-08-06T10:42:54;94981.03;;;15.97;71.25
10978;BME280;5542;48.272;10.794;2023-08-06T10:45:22;94989.97;;;15.77;73.02
10978;BME280;5542;48.272;10.794;2023-08-06T10:47:53;94986.00;;;15.75;73.21
10978;BME280;5542;48.272;10.794;2023-08-06T10:50:20;94987.38;;;15.72;73.41
10978;BME280;5542;48.272;10.794;2023-08-06T10:52:47;94981.78;;;15.74;73.44
10978;BME280;5542;48.272;10.794;2023-08-06T10:55:14;94978.19;;;15.88;73.54
10978;BME280;5542;48.272;10.794;2023-08-06T10:57:48;94984.38;;;16.08;72.67
10978;BME280;5542;48.272;10.794;2023-08-06T11:00:14;94976.09;;;16.15;74.11
10978;BME280;5542;48.272;10.794;2023-08-06T11:02:42;94991.53;;;16.07;73.36
10978;BME280;5542;48.272;10.794;2023-08-06T11:05:10;94984.72;;;16.01;72.47
10978;BME280;5542;48.272;10.794;2023-08-06T11:07:38;94987.38;;;16.01;73.14
10978;BME280;5542;48.272;10.794;2023-08-06T11:10:06;94991.84;;;16.06;73.08
10978;BME280;5542;48.272;10.794;2023-08-06T11:12:33;94986.78;;;16.09;73.21
10978;BME280;5542;48.272;10.794;2023-08-06T11:15:01;94979.19;;;15.98;72.72
10978;BME280;5542;48.272;10.794;2023-08-06T11:17:28;94973.03;;;16.02;72.58
10978;BME280;5542;48.272;10.794;2023-08-06T11:19:59;94993.31;;;16.17;72.51
10978;BME280;5542;48.272;10.794;2023-08-06T11:22:26;94984.84;;;16.15;72.61
10978;BME280;5542;48.272;10.794;2023-08-06T11:24:53;94972.25;;;16.26;71.21
10978;BME280;5542;48.272;10.794;2023-08-06T11:27:20;94975.69;;;16.26;72.19
10978;BME280;5542;48.272;10.794;2023-08-06T11:29:47;94979.81;;;16.13;71.66
10978;BME280;5542;48.272;10.794;2023-08-06T11:32:13;94975.41;;;16.28;72.17
10978;BME280;5542;48.272;10.794;2023-08-06T11:34:40;94976.38;;;16.37;71.80
10978;BME280;5542;48.272;10.794;2023-08-06T11:37:08;94969.97;;;16.43;70.72
10978;BME280;5542;48.272;10.794;2023-08-06T11:39:36;94977.97;;;16.38;70.65
10978;BME280;5542;48.272;10.794;2023-08-06T11:42:04;94982.66;;;16.46;71.94
10978;BME280;5542;48.272;10.794;2023-08-06T11:44:32;94977.50;;;16.55;70.09
10978;BME280;5542;48.272;10.794;2023-08-06T11:46:59;94974.34;;;16.53;70.20
10978;BME280;5542;48.272;10.794;2023-08-06T11:49:40;94995.47;;;16.63;69.53
10978;BME280;5542;48.272;10.794;2023-08-06T11:52:14;94985.63;;;16.63;68.55
10978;BME280;5542;48.272;10.794;2023-08-06T11:54:41;94978.66;;;16.49;69.20
10978;BME280;5542;48.272;10.794;2023-08-06T11:57:08;94995.00;;;16.56;73.61
10978;BME280;5542;48.272;10.794;2023-08-06T11:59:37;95012.63;;;16.47;74.83
10978;BME280;5542;48.272;10.794;2023-08-06T12:02:05;95011.22;;;16.30;75.57
10978;BME280;5542;48.272;10.794;2023-08-06T12:04:58;95007.94;;;16.15;77.69
10978;BME280;5542;48.272;10.794;2023-08-06T12:07:30;95015.66;;;16.11;78.97
10978;BME280;5542;48.272;10.794;2023-08-06T12:09:57;95018.22;;;15.92;79.16
10978;BME280;5542;48.272;10.794;2023-08-06T12:12:24;95019.28;;;15.91;78.76
10978;BME280;5542;48.272;10.794;2023-08-06T12:14:51;95027.38;;;16.05;80.22
10978;BME280;5542;48.272;10.794;2023-08-06T12:17:17;95010.75;;;15.94;79.50
10978;BME280;5542;48.272;10.794;2023-08-06T12:19:45;95013.19;;;15.91;79.91
10978;BME280;5542;48.272;10.794;2023-08-06T12:22:12;95023.19;;;15.99;80.62
10978;BME280;5542;48.272;10.794;2023-08-06T12:24:41;95023.81;;;15.91;79.81
10978;BME280;5542;48.272;10.794;2023-08-06T12:27:07;95018.16;;;15.63;81.04
10978;BME280;5542;48.272;10.794;2023-08-06T12:29:34;95026.19;;;15.53;81.40
10978;BME280;5542;48.272;10.794;2023-08-06T12:32:01;95029.66;;;15.48;82.08
10978;BME280;5542;48.272;10.794;2023-08-06T12:34:28;95025.22;;;15.39;82.85
10978;BME280;5542;48.272;10.794;2023-08-06T12:36:54;95020.22;;;15.32;84.06
10978;BME280;5542;48.272;10.794;2023-08-06T12:39:21;95024.97;;;15.35;85.59
10978;BME280;5542;48.272;10.794;2023-08-06T12:41:49;95022.06;;;15.31;84.30
10978;BME280;5542;48.272;10.794;2023-08-06T12:44:15;95027.59;;;15.40;84.97
10978;BME280;5542;48.272;10.794;2023-08-06T12:46:42;95033.44;;;15.37;84.45
10978;BME280;5542;48.272;10.794;2023-08-06T12:49:08;95023.81;;;15.46;84.61
10978;BME280;5542;48.272;10.794;2023-08-06T12:51:35;95025.13;;;15.54;84.48
10978;BME280;5542;48.272;10.794;2023-08-06T12:54:02;95014.31;;;15.45;83.43
10978;BME280;5542;48.272;10.794;2023-08-06T12:56:28;95023.31;;;15.44;83.83
10978;BME280;5542;48.272;10.794;2023-08-06T12:58:56;95027.31;;;15.42;83.48
10978;BME280;5542;48.272;10.794;2023-08-06T13:01:23;95028.88;;;15.43;82.99